Time;durP1;ratioP1;P1;durP2;ratioP2;P2;SDS_P1;SDS_P2;PMS_P1;PMS_P2;Temp;Humidity;BMP_temperature;BMP_pressure;BME280_temperature;BME280_humidity;BME280_pressure;Samples;Min_cycle;Max_cycle;Signal;HPM_P1;HPM_P2
2024/04/05 00:01:01;;;;;;;;;;;20.30;46.20;;;;;;5095456;28;1980;-71
2024/04/05 00:03:28;;;;;;;;;;;20.30;46.20;;;;;;5095151;28;1267;-72
2024/04/05 00:05:53;;;;;;;;;;;20.30;46.20;;;;;;5095246;28;1174;-71
2024/04/05 00:08:24;;;;;;;;;;;20.30;46.20;;;;;;5095116;28;1186;-71
2024/04/05 00:10:49;;;;;;;;;;;20.30;46.20;;;;;;5095404;28;1087;-71
2024/04/05 00:13:16;;;;;;;;;;;20.30;46.20;;;;;;5095334;28;1016;-71
2024/04/05 00:15:41;;;;;;;;;;;20.20;46.10;;;;;;5095194;28;1008;-71
2024/04/05 00:18:08;;;;;;;;;;;20.20;46.10;;;;;;5094940;28;1182;-71
2024/04/05 00:20:33;;;;;;;;;;;20.30;46.20;;;;;;5095264;28;1075;-71
2024/04/05 00:23:00;;;;;;;;;;;20.30;46.20;;;;;;5095694;28;2071;-71
2024/04/05 00:25:25;;;;;;;;;;;20.30;46.20;;;;;;5095132;28;1051;-71
2024/04/05 00:27:54;;;;;;;;;;;20.30;46.20;;;;;;5095103;28;1055;-71
2024/04/05 00:30:19;;;;;;;;;;;20.30;46.20;;;;;;5094876;28;1230;-72
2024/04/05 00:32:46;;;;;;;;;;;20.30;46.20;;;;;;5095218;28;1123;-71
2024/04/05 00:35:11;;;;;;;;;;;20.30;46.20;;;;;;5095831;28;1000;-71
2024/04/05 00:37:37;;;;;;;;;;;20.20;46.10;;;;;;5097343;28;1115;-72
2024/04/05 00:40:03;;;;;;;;;;;20.30;46.20;;;;;;5102217;28;1030;-72
2024/04/05 00:42:29;;;;;;;;;;;20.20;46.10;;;;;;5102229;28;1988;-71
2024/04/05 00:44:55;;;;;;;;;;;20.20;46.10;;;;;;5102332;28;1079;-70
2024/04/05 00:47:21;;;;;;;;;;;20.30;46.20;;;;;;5102350;28;1070;-72
2024/04/05 00:49:47;;;;;;;;;;;20.20;46.10;;;;;;5102247;28;1063;-71
2024/04/05 00:52:13;;;;;;;;;;;20.30;46.20;;;;;;5102307;28;1059;-71
2024/04/05 00:54:39;;;;;;;;;;;20.20;46.10;;;;;;5102012;28;1127;-71
2024/04/05 00:57:05;;;;;;;;;;;20.20;46.10;;;;;;5101774;28;1127;-71
2024/04/05 00:59:30;;;;;;;;;;;20.20;46.10;;;;;;5102039;28;1012;-71
2024/04/05 01:01:57;;;;;;;;;;;20.20;46.10;;;;;;5101854;28;2024;-71
2024/04/05 01:04:22;;;;;;;;;;;20.20;46.10;;;;;;5102128;28;1075;-71
2024/04/05 01:06:49;;;;;;;;;;;20.20;46.10;;;;;;5102202;28;1064;-71
2024/04/05 01:09:14;;;;;;;;;;;20.20;46.10;;;;;;5102145;28;1051;-71
2024/04/05 01:11:41;;;;;;;;;;;20.20;46.10;;;;;;5102111;28;1027;-71
2024/04/05 01:14:06;;;;;;;;;;;20.20;46.10;;;;;;5102110;28;1024;-71
2024/04/05 01:16:32;;;;;;;;;;;20.20;46.00;;;;;;5101573;28;1257;-71
2024/04/05 01:18:58;;;;;;;;;;;20.20;46.00;;;;;;5102154;28;1098;-71
2024/04/05 01:21:24;;;;;;;;;;;20.20;46.00;;;;;;5101553;28;1987;-71
2024/04/05 01:23:50;;;;;;;;;;;20.20;46.00;;;;;;5101570;28;1174;-71
2024/04/05 01:26:16;;;;;;;;;;;20.20;46.00;;;;;;5099798;28;1283;-71
2024/04/05 01:28:42;;;;;;;;;;;20.20;46.00;;;;;;5101503;28;1344;-72
2024/04/05 01:31:08;;;;;;;;;;;20.20;46.00;;;;;;5101668;28;1162;-71
2024/04/05 01:33:33;;;;;;;;;;;20.20;46.00;;;;;;5101761;28;1131;-72
2024/04/05 01:36:00;;;;;;;;;;;20.20;46.00;;;;;;5101531;28;1182;-71
2024/04/05 01:38:25;;;;;;;;;;;20.20;46.00;;;;;;5101324;28;1175;-71
2024/04/05 01:40:52;;;;;;;;;;;20.20;46.00;;;;;;5101573;28;1011;-72
2024/04/05 01:43:17;;;;;;;;;;;20.20;46.00;;;;;;5101011;28;1984;-71
2024/04/05 01:45:44;;;;;;;;;;;20.20;46.00;;;;;;5101333;28;1014;-72
2024/04/05 01:48:09;;;;;;;;;;;20.20;46.00;;;;;;5101976;28;1039;-71
2024/04/05 01:50:35;;;;;;;;;;;20.20;46.00;;;;;;5097084;28;1120;-71
2024/04/05 01:53:01;;;;;;;;;;;20.20;46.00;;;;;;5098490;28;1063;-71
2024/04/05 01:55:27;;;;;;;;;;;20.20;46.00;;;;;;5098547;28;1004;-72
2024/04/05 01:57:53;;;;;;;;;;;20.20;46.00;;;;;;5098165;28;1019;-72
2024/04/05 02:00:19;;;;;;;;;;;20.20;46.00;;;;;;5098012;28;1309;-71
2024/04/05 02:02:45;;;;;;;;;;;20.20;46.00;;;;;;5098146;28;1981;-71
2024/04/05 02:05:11;;;;;;;;;;;20.20;46.00;;;;;;5098135;28;1062;-71
2024/04/05 02:07:37;;;;;;;;;;;20.10;45.80;;;;;;5098119;28;1090;-70
2024/04/05 02:10:03;;;;;;;;;;;20.20;45.90;;;;;;5098048;28;1075;-72
2024/04/05 02:12:29;;;;;;;;;;;20.10;45.80;;;;;;5098617;28;1019;-71
2024/04/05 02:14:55;;;;;;;;;;;20.10;45.80;;;;;;5098701;28;1102;-71
2024/04/05 02:17:21;;;;;;;;;;;20.20;45.90;;;;;;5097994;28;1123;-71
2024/04/05 02:19:47;;;;;;;;;;;20.20;45.90;;;;;;5097957;28;1021;-71
2024/04/05 02:22:13;;;;;;;;;;;20.10;45.80;;;;;;5097883;28;1909;-71
2024/04/05 02:24:39;;;;;;;;;;;20.10;45.80;;;;;;5097505;28;1143;-71
2024/04/05 02:27:04;;;;;;;;;;;20.10;45.80;;;;;;5097740;28;1024;-71
2024/04/05 02:29:31;;;;;;;;;;;20.20;45.90;;;;;;5097482;28;1119;-72
2024/04/05 02:31:56;;;;;;;;;;;20.10;45.80;;;;;;5097758;28;1095;-71
2024/04/05 02:34:23;;;;;;;;;;;20.10;45.80;;;;;;5097492;28;1131;-71
2024/04/05 02:36:48;;;;;;;;;;;20.10;45.80;;;;;;5097709;28;1090;-71
2024/04/05 02:39:15;;;;;;;;;;;20.10;45.80;;;;;;5097446;28;995;-71
2024/04/05 02:41:40;;;;;;;;;;;20.10;45.70;;;;;;5097184;28;1975;-71
2024/04/05 02:44:06;;;;;;;;;;;20.10;45.70;;;;;;5097245;28;1188;-71
2024/04/05 02:46:32;;;;;;;;;;;20.10;45.70;;;;;;5097303;28;1080;-71
2024/04/05 02:48:58;;;;;;;;;;;20.10;45.70;;;;;;5097571;28;1010;-72
2024/04/05 02:51:24;;;;;;;;;;;20.10;45.70;;;;;;5097456;28;1016;-70
2024/04/05 02:53:50;;;;;;;;;;;20.10;45.70;;;;;;5096885;28;996;-72
2024/04/05 02:56:16;;;;;;;;;;;20.10;45.60;;;;;;5097274;28;1103;-71
2024/04/05 02:58:42;;;;;;;;;;;20.10;45.60;;;;;;5097233;28;1067;-72
2024/04/05 03:01:08;;;;;;;;;;;20.10;45.60;;;;;;5118231;22;3086;-72
2024/04/05 03:03:35;;;;;;;;;;;20.10;45.60;;;;;;5096387;28;1990;-72
2024/04/05 03:06:00;;;;;;;;;;;20.10;45.60;;;;;;5096363;28;1023;-72
2024/04/05 03:08:26;;;;;;;;;;;20.10;45.60;;;;;;5096007;28;1158;-72
2024/04/05 03:10:52;;;;;;;;;;;20.10;45.50;;;;;;5096242;28;1024;-72
2024/04/05 03:13:18;;;;;;;;;;;20.10;45.50;;;;;;5095930;28;1170;-72
2024/04/05 03:15:44;;;;;;;;;;;20.10;45.50;;;;;;5096097;28;1170;-72
2024/04/05 03:18:10;;;;;;;;;;;20.10;45.50;;;;;;5096169;28;1058;-72
2024/04/05 03:20:36;;;;;;;;;;;20.10;45.50;;;;;;5096106;28;1088;-72
2024/04/05 03:23:02;;;;;;;;;;;20.10;45.50;;;;;;5095985;28;1987;-72
2024/04/05 03:25:28;;;;;;;;;;;20.10;45.50;;;;;;5095976;28;1048;-72
2024/04/05 03:27:54;;;;;;;;;;;20.10;45.50;;;;;;5095704;28;2018;-72
2024/04/05 03:30:20;;;;;;;;;;;20.10;45.50;;;;;;5095898;28;1067;-71
2024/04/05 03:32:46;;;;;;;;;;;20.10;45.50;;;;;;5095526;28;1143;-72
2024/04/05 03:35:12;;;;;;;;;;;20.10;45.40;;;;;;5095506;28;1119;-72
2024/04/05 03:37:38;;;;;;;;;;;20.10;45.40;;;;;;5095471;28;1370;-72
2024/04/05 03:40:05;;;;;;;;;;;20.10;45.40;;;;;;5095443;28;1170;-72
2024/04/05 03:42:30;;;;;;;;;;;20.10;45.40;;;;;;5095811;28;1988;-72
2024/04/05 03:44:57;;;;;;;;;;;20.10;45.40;;;;;;5095356;28;1124;-72
2024/04/05 03:47:22;;;;;;;;;;;20.10;45.30;;;;;;5095605;28;1084;-72
2024/04/05 03:49:49;;;;;;;;;;;20.00;45.30;;;;;;5095579;28;1083;-72
2024/04/05 03:52:14;;;;;;;;;;;20.00;45.30;;;;;;5095484;28;1038;-72
2024/04/05 03:54:41;;;;;;;;;;;20.10;45.30;;;;;;5095494;28;1079;-72
2024/04/05 03:57:06;;;;;;;;;;;20.10;45.30;;;;;;5095452;28;1081;-72
2024/04/05 03:59:33;;;;;;;;;;;20.10;45.30;;;;;;5095096;28;1170;-72
2024/04/05 04:01:58;;;;;;;;;;;20.10;45.30;;;;;;5095063;28;1922;-72
2024/04/05 04:04:24;;;;;;;;;;;20.00;45.20;;;;;;5095330;28;1057;-72
2024/04/05 04:06:50;;;;;;;;;;;20.00;45.20;;;;;;5095262;28;1025;-72
2024/04/05 04:09:17;;;;;;;;;;;20.00;45.20;;;;;;5095265;28;1011;-72
2024/04/05 04:11:42;;;;;;;;;;;20.00;45.20;;;;;;5095084;28;1030;-72
2024/04/05 04:14:09;;;;;;;;;;;20.00;45.20;;;;;;5094825;28;1059;-71
2024/04/05 04:16:34;;;;;;;;;;;20.00;45.20;;;;;;5094840;28;1284;-72
2024/04/05 04:19:01;;;;;;;;;;;20.00;45.20;;;;;;5095134;28;1056;-72
2024/04/05 04:21:26;;;;;;;;;;;20.00;45.10;;;;;;5094774;28;1530;-71
2024/04/05 04:23:53;;;;;;;;;;;20.00;45.10;;;;;;5095003;28;1910;-72
2024/04/05 04:26:18;;;;;;;;;;;20.00;45.10;;;;;;5094951;28;1123;-72
2024/04/05 04:28:45;;;;;;;;;;;20.00;45.10;;;;;;5094996;28;997;-72
2024/04/05 04:31:10;;;;;;;;;;;20.00;45.10;;;;;;5095333;28;1123;-72
2024/04/05 04:33:37;;;;;;;;;;;20.00;45.10;;;;;;5094790;28;1178;-72
2024/04/05 04:36:03;;;;;;;;;;;20.00;45.10;;;;;;5095260;28;1012;-72
2024/04/05 04:38:29;;;;;;;;;;;20.00;45.10;;;;;;5094792;28;1280;-72
2024/04/05 04:40:55;;;;;;;;;;;20.00;45.10;;;;;;5095112;28;1032;-72
2024/04/05 04:43:22;;;;;;;;;;;20.00;45.00;;;;;;5094482;28;1909;-72
2024/04/05 04:45:47;;;;;;;;;;;20.00;45.00;;;;;;5094835;28;1015;-72
2024/04/05 04:48:14;;;;;;;;;;;20.00;45.00;;;;;;5094479;28;1207;-72
2024/04/05 04:50:39;;;;;;;;;;;20.00;45.00;;;;;;5094991;28;1097;-71
2024/04/05 04:53:06;;;;;;;;;;;20.00;45.00;;;;;;5094494;28;1119;-71
2024/04/05 04:55:31;;;;;;;;;;;20.00;45.00;;;;;;5094528;28;1099;-71
2024/04/05 04:57:57;;;;;;;;;;;20.00;45.00;;;;;;5094416;28;1083;-71
2024/04/05 05:00:23;;;;;;;;;;;20.00;45.00;;;;;;5094465;28;1143;-71
2024/04/05 05:02:49;;;;;;;;;;;20.00;45.00;;;;;;5094343;28;1974;-71
2024/04/05 05:05:15;;;;;;;;;;;20.00;45.00;;;;;;5094273;28;984;-72
2024/04/05 05:07:41;;;;;;;;;;;20.00;45.00;;;;;;5094562;28;1064;-71
2024/04/05 05:10:07;;;;;;;;;;;20.00;45.00;;;;;;5094535;28;1087;-72
2024/04/05 05:12:33;;;;;;;;;;;20.00;45.00;;;;;;5094242;28;1107;-72
2024/04/05 05:14:59;;;;;;;;;;;20.00;44.90;;;;;;5094198;28;1112;-72
2024/04/05 05:17:25;;;;;;;;;;;20.00;44.90;;;;;;5094527;28;1159;-72
2024/04/05 05:19:50;;;;;;;;;;;20.00;44.90;;;;;;5095259;28;1682;-72
2024/04/05 05:22:17;;;;;;;;;;;20.00;44.90;;;;;;5094393;28;1906;-72
2024/04/05 05:24:43;;;;;;;;;;;20.00;44.90;;;;;;5095380;28;1039;-72
2024/04/05 05:27:09;;;;;;;;;;;20.00;44.90;;;;;;5097985;28;1194;-72
2024/04/05 05:29:34;;;;;;;;;;;20.00;44.90;;;;;;5097806;28;1123;-72
2024/04/05 05:32:01;;;;;;;;;;;20.00;44.90;;;;;;5097863;28;1202;-69
2024/04/05 05:34:27;;;;;;;;;;;20.00;44.90;;;;;;5097685;28;1139;-70
2024/04/05 05:36:53;;;;;;;;;;;20.00;44.90;;;;;;5098121;28;1030;-70
2024/04/05 05:39:20;;;;;;;;;;;20.00;45.00;;;;;;5097958;28;1024;-70
2024/04/05 05:41:47;;;;;;;;;;;20.00;45.00;;;;;;5098017;28;1011;-70
2024/04/05 05:44:12;;;;;;;;;;;20.00;45.00;;;;;;5097746;28;1976;-69
2024/04/05 05:46:38;;;;;;;;;;;19.90;44.80;;;;;;5097547;28;1354;-70
2024/04/05 05:49:04;;;;;;;;;;;20.00;45.00;;;;;;5097860;28;995;-70
2024/04/05 05:51:30;;;;;;;;;;;20.00;45.00;;;;;;5097508;28;1138;-70
2024/04/05 05:53:56;;;;;;;;;;;19.90;44.90;;;;;;5097878;28;992;-72
2024/04/05 05:56:23;;;;;;;;;;;20.00;45.00;;;;;;5097455;28;1448;-72
2024/04/05 05:58:48;;;;;;;;;;;20.00;45.00;;;;;;5097917;28;1080;-72
2024/04/05 06:01:15;;;;;;;;;;;19.90;44.90;;;;;;5097244;28;1159;-72
2024/04/05 06:03:41;;;;;;;;;;;20.00;45.00;;;;;;5097449;28;1914;-72
2024/04/05 06:06:08;;;;;;;;;;;19.90;44.90;;;;;;5097565;28;997;-71
2024/04/05 06:08:34;;;;;;;;;;;20.00;45.00;;;;;;5097482;28;1357;-72
2024/04/05 06:11:00;;;;;;;;;;;20.00;45.00;;;;;;5097689;28;1095;-72
2024/04/05 06:13:26;;;;;;;;;;;20.00;45.00;;;;;;5097481;28;1338;-71
2024/04/05 06:15:52;;;;;;;;;;;20.00;45.10;;;;;;5097682;28;1060;-70
2024/04/05 06:18:18;;;;;;;;;;;20.00;45.30;;;;;;5097291;28;1008;-70
2024/04/05 06:20:44;;;;;;;;;;;20.10;45.60;;;;;;5097462;28;1276;-70
2024/04/05 06:23:10;;;;;;;;;;;20.10;45.80;;;;;;5097951;28;1909;-73
2024/04/05 06:25:36;;;;;;;;;;;20.10;45.90;;;;;;5098155;28;1054;-73
2024/04/05 06:28:01;;;;;;;;;;;20.10;45.90;;;;;;5097641;28;1078;-71
2024/04/05 06:30:28;;;;;;;;;;;20.10;46.10;;;;;;5097177;28;1287;-71
2024/04/05 06:32:53;;;;;;;;;;;20.00;46.60;;;;;;5097112;28;1297;-71
2024/04/05 06:35:20;;;;;;;;;;;20.00;46.60;;;;;;5097424;28;1083;-71
2024/04/05 06:37:46;;;;;;;;;;;20.00;46.50;;;;;;5097483;28;1059;-71
2024/04/05 06:40:12;;;;;;;;;;;20.10;46.50;;;;;;5097310;28;1086;-72
2024/04/05 06:42:38;;;;;;;;;;;20.10;46.60;;;;;;5096992;28;1890;-72
2024/04/05 06:45:04;;;;;;;;;;;20.10;46.50;;;;;;5096751;28;1066;-71
2024/04/05 06:47:30;;;;;;;;;;;20.10;46.50;;;;;;5096736;28;1091;-71
2024/04/05 06:49:56;;;;;;;;;;;20.10;46.40;;;;;;5096623;28;993;-72
2024/04/05 06:52:22;;;;;;;;;;;20.10;46.40;;;;;;5096227;28;1349;-72
2024/04/05 06:54:49;;;;;;;;;;;20.10;46.30;;;;;;5096588;28;1078;-72
2024/04/05 06:57:14;;;;;;;;;;;20.10;46.30;;;;;;5096539;28;1091;-71
2024/04/05 06:59:40;;;;;;;;;;;20.20;46.40;;;;;;5096478;28;1001;-71
2024/04/05 07:02:06;;;;;;;;;;;20.20;46.40;;;;;;5095764;28;1993;-72
2024/04/05 07:04:32;;;;;;;;;;;20.20;46.30;;;;;;5096244;28;1068;-72
2024/04/05 07:06:58;;;;;;;;;;;20.20;46.30;;;;;;5096274;28;1084;-72
2024/04/05 07:09:25;;;;;;;;;;;20.20;46.30;;;;;;5096582;28;1095;-73
2024/04/05 07:11:51;;;;;;;;;;;20.20;46.20;;;;;;5096369;28;1152;-72
2024/04/05 07:14:18;;;;;;;;;;;20.20;46.20;;;;;;5096606;28;1053;-72
2024/04/05 07:16:43;;;;;;;;;;;20.20;46.20;;;;;;5096766;28;1094;-72
2024/04/05 07:19:10;;;;;;;;;;;20.20;46.20;;;;;;5096018;28;1111;-72
2024/04/05 07:21:35;;;;;;;;;;;20.20;46.20;;;;;;5096668;28;1075;-70
2024/04/05 07:24:02;;;;;;;;;;;20.30;46.20;;;;;;5096069;28;1909;-71
2024/04/05 07:26:27;;;;;;;;;;;20.30;46.20;;;;;;5096307;28;1068;-71
2024/04/05 07:28:54;;;;;;;;;;;20.30;46.20;;;;;;5096104;28;1004;-71
2024/04/05 07:31:20;;;;;;;;;;;20.30;46.10;;;;;;5096002;28;1056;-71
2024/04/05 07:33:47;;;;;;;;;;;20.30;46.10;;;;;;5095722;28;1091;-71
2024/04/05 07:36:12;;;;;;;;;;;20.30;46.00;;;;;;5096074;28;1110;-71
2024/04/05 07:38:39;;;;;;;;;;;20.30;46.00;;;;;;5096137;28;1354;-71
2024/04/05 07:41:04;;;;;;;;;;;20.30;45.90;;;;;;5095795;28;1107;-70
2024/04/05 07:43:31;;;;;;;;;;;20.30;45.90;;;;;;5095529;28;1914;-70
2024/04/05 07:45:56;;;;;;;;;;;20.30;45.90;;;;;;5095897;28;1086;-70
2024/04/05 07:48:23;;;;;;;;;;;20.40;46.00;;;;;;5095134;28;995;-71
2024/04/05 07:50:48;;;;;;;;;;;20.40;46.00;;;;;;5060487;28;1332;-71
2024/04/05 07:53:15;;;;;;;;;;;20.40;46.10;;;;;;5055101;28;965;-72
2024/04/05 07:55:40;;;;;;;;;;;20.40;46.10;;;;;;5061745;28;1277;-70
2024/04/05 07:58:07;;;;;;;;;;;20.50;46.00;;;;;;5074758;28;1135;-71
2024/04/05 08:00:32;;;;;;;;;;;20.50;46.00;;;;;;5070811;28;1418;-70
2024/04/05 08:02:59;;;;;;;;;;;20.50;46.00;;;;;;5072949;28;1906;-71
2024/04/05 08:05:24;;;;;;;;;;;20.60;46.10;;;;;;5074045;28;1047;-71
2024/04/05 08:07:50;;;;;;;;;;;20.50;46.00;;;;;;5075125;28;996;-70
2024/04/05 08:10:16;;;;;;;;;;;20.60;46.20;;;;;;5075159;28;1031;-71
2024/04/05 08:12:42;;;;;;;;;;;20.60;46.00;;;;;;5074693;28;2068;-71
2024/04/05 08:15:09;;;;;;;;;;;20.60;46.10;;;;;;5074784;28;1159;-70
2024/04/05 08:17:35;;;;;;;;;;;20.70;45.80;;;;;;5075180;28;1090;-70
2024/04/05 08:20:01;;;;;;;;;;;20.70;45.80;;;;;;5075316;28;1024;-71
2024/04/05 08:22:27;;;;;;;;;;;20.80;45.60;;;;;;5074961;28;1993;-73
2024/04/05 08:24:53;;;;;;;;;;;20.70;45.50;;;;;;5075242;28;1015;-73
2024/04/05 08:27:20;;;;;;;;;;;20.80;46.20;;;;;;5074711;28;1100;-72
2024/04/05 08:29:45;;;;;;;;;;;20.80;45.50;;;;;;5075158;28;1055;-71
2024/04/05 08:32:12;;;;;;;;;;;20.80;45.50;;;;;;5074648;28;1104;-72
2024/04/05 08:34:38;;;;;;;;;;;20.90;45.80;;;;;;5074971;28;1067;-72
2024/04/05 08:37:04;;;;;;;;;;;20.90;46.00;;;;;;5071984;28;1375;-71
2024/04/05 08:39:30;;;;;;;;;;;20.90;46.20;;;;;;5073843;28;1587;-72
2024/04/05 08:41:56;;;;;;;;;;;20.90;46.40;;;;;;5054673;28;1543;-72
2024/04/05 08:44:22;;;;;;;;;;;20.90;46.70;;;;;;5054100;28;1984;-71
2024/04/05 08:46:48;;;;;;;;;;;21.00;47.00;;;;;;5054886;28;1472;-75
2024/04/05 08:49:14;;;;;;;;;;;21.00;47.10;;;;;;5054638;28;1798;-75
2024/04/05 08:51:40;;;;;;;;;;;21.00;47.10;;;;;;5054838;28;1076;-80
2024/04/05 08:54:07;;;;;;;;;;;21.00;47.00;;;;;;5055054;28;1174;-75
2024/04/05 08:56:33;;;;;;;;;;;21.00;46.70;;;;;;5055102;28;1001;-74
2024/04/05 08:58:59;;;;;;;;;;;20.90;46.50;;;;;;5056310;28;1028;-75
2024/04/05 09:01:25;;;;;;;;;;;20.90;46.20;;;;;;5059213;28;1140;-73
2024/04/05 09:03:51;;;;;;;;;;;20.90;44.20;;;;;;5059144;28;1913;-72
2024/04/05 09:06:18;;;;;;;;;;;20.80;44.00;;;;;;5058232;28;1536;-72
2024/04/05 09:08:44;;;;;;;;;;;20.90;44.00;;;;;;5067921;28;1481;-72
2024/04/05 09:11:10;;;;;;;;;;;20.90;43.60;;;;;;5078107;28;1043;-72
2024/04/05 09:13:37;;;;;;;;;;;20.90;43.40;;;;;;5076517;28;1581;-72
2024/04/05 09:16:04;;;;;;;;;;;20.90;43.10;;;;;;5077936;28;1124;-72
2024/04/05 09:18:29;;;;;;;;;;;20.90;44.10;;;;;;5078037;28;1009;-73
2024/04/05 09:20:56;;;;;;;;;;;20.90;44.00;;;;;;5077743;28;1191;-72
2024/04/05 09:23:21;;;;;;;;;;;21.00;43.90;;;;;;5077446;28;1902;-71
2024/04/05 09:25:48;;;;;;;;;;;21.00;43.90;;;;;;5078020;28;1009;-72
2024/04/05 09:28:16;;;;;;;;;;;21.00;43.70;;;;;;5077850;28;1016;-72
2024/04/05 09:30:42;;;;;;;;;;;21.00;43.60;;;;;;5077470;28;1175;-72
2024/04/05 09:33:07;;;;;;;;;;;21.10;43.30;;;;;;5077781;28;1031;-73
2024/04/05 09:35:34;;;;;;;;;;;21.10;43.40;;;;;;5077430;28;1104;-73
2024/04/05 09:38:00;;;;;;;;;;;21.10;43.20;;;;;;5077513;28;1103;-73
2024/04/05 09:40:27;;;;;;;;;;;21.10;42.70;;;;;;5077755;28;1076;-73
2024/04/05 09:42:53;;;;;;;;;;;21.10;42.40;;;;;;5077577;28;1905;-73
2024/04/05 09:45:19;;;;;;;;;;;21.10;42.20;;;;;;5077249;28;1142;-73
2024/04/05 09:47:45;;;;;;;;;;;21.10;42.20;;;;;;5077199;28;1043;-73
2024/04/05 09:50:11;;;;;;;;;;;21.10;41.50;;;;;;5077247;28;1131;-73
2024/04/05 09:52:37;;;;;;;;;;;21.20;42.40;;;;;;5077269;28;1154;-71
2024/04/05 09:55:03;;;;;;;;;;;21.20;42.20;;;;;;5077595;28;1056;-74
2024/04/05 09:57:29;;;;;;;;;;;21.20;42.60;;;;;;5077437;28;1074;-73
2024/04/05 09:59:56;;;;;;;;;;;21.30;42.50;;;;;;5077409;28;1023;-78
2024/04/05 10:02:21;;;;;;;;;;;21.30;42.50;;;;;;5076814;28;1264;-72
2024/04/05 10:04:47;;;;;;;;;;;21.40;42.60;;;;;;5076901;28;1993;-72
2024/04/05 10:07:14;;;;;;;;;;;21.30;42.70;;;;;;5076969;28;1182;-71
2024/04/05 10:09:40;;;;;;;;;;;21.30;42.80;;;;;;5077011;28;1055;-73
2024/04/05 10:12:05;;;;;;;;;;;21.30;42.00;;;;;;5076472;28;1157;-73
2024/04/05 10:14:32;;;;;;;;;;;21.40;41.90;;;;;;5077113;28;1060;-72
2024/04/05 10:16:57;;;;;;;;;;;21.50;42.90;;;;;;5065902;28;1635;-71
2024/04/05 10:19:24;;;;;;;;;;;21.50;43.10;;;;;;5057509;28;1012;-72
2024/04/05 10:21:49;;;;;;;;;;;21.50;43.00;;;;;;5056595;28;1272;-72
2024/04/05 10:24:16;;;;;;;;;;;21.60;43.60;;;;;;5057080;28;1906;-71
2024/04/05 10:26:42;;;;;;;;;;;21.70;43.60;;;;;;5056696;28;1159;-72
2024/04/05 10:29:09;;;;;;;;;;;21.70;43.60;;;;;;5056921;28;1088;-71
2024/04/05 10:31:36;;;;;;;;;;;21.80;43.60;;;;;;5056862;28;1073;-71
2024/04/05 10:34:03;;;;;;;;;;;21.80;43.80;;;;;;5056711;28;1088;-71
2024/04/05 10:36:28;;;;;;;;;;;21.80;44.10;;;;;;5057406;28;1025;-70
2024/04/05 10:38:55;;;;;;;;;;;21.80;44.50;;;;;;5056664;28;1000;-70
2024/04/05 10:41:21;;;;;;;;;;;21.80;44.40;;;;;;5056293;28;1112;-71
2024/04/05 10:43:47;;;;;;;;;;;21.80;44.80;;;;;;5056445;28;1991;-71
2024/04/05 10:46:13;;;;;;;;;;;21.70;45.00;;;;;;5056201;28;1039;-72
2024/04/05 10:48:40;;;;;;;;;;;21.70;45.50;;;;;;5056522;28;1006;-73
2024/04/05 10:51:05;;;;;;;;;;;21.70;45.60;;;;;;5056601;28;1067;-72
2024/04/05 10:53:31;;;;;;;;;;;21.70;45.60;;;;;;5056567;28;1199;-72
2024/04/05 10:55:57;;;;;;;;;;;21.70;45.70;;;;;;5056727;28;1005;-77
2024/04/05 10:58:26;;;;;;;;;;;21.80;45.50;;;;;;5056363;28;1302;-76
2024/04/05 11:00:52;;;;;;;;;;;21.80;45.40;;;;;;5056279;28;1224;-77
2024/04/05 11:03:19;;;;;;;;;;;21.80;45.80;;;;;;5056246;28;1990;-75
2024/04/05 11:05:46;;;;;;;;;;;21.70;45.70;;;;;;5056024;28;1104;-75
2024/04/05 11:08:12;;;;;;;;;;;21.80;44.40;;;;;;5055775;28;1172;-74
2024/04/05 11:10:37;;;;;;;;;;;21.90;42.90;;;;;;5056047;28;1018;-73
2024/04/05 11:13:04;;;;;;;;;;;21.90;42.20;;;;;;5055741;28;1298;-74
2024/04/05 11:15:29;;;;;;;;;;;21.90;41.70;;;;;;5055960;28;1053;-74
2024/04/05 11:17:56;;;;;;;;;;;21.80;41.80;;;;;;5055605;28;1269;-71
2024/04/05 11:20:21;;;;;;;;;;;21.90;41.30;;;;;;5055866;28;1071;-73
2024/04/05 11:22:48;;;;;;;;;;;21.90;41.00;;;;;;5055356;28;1910;-73
2024/04/05 11:25:13;;;;;;;;;;;22.00;39.60;;;;;;5055506;28;1136;-73
2024/04/05 11:27:40;;;;;;;;;;;22.00;39.50;;;;;;5055510;28;1871;-74
2024/04/05 11:30:05;;;;;;;;;;;22.00;39.00;;;;;;5055704;28;1520;-73
2024/04/05 11:32:32;;;;;;;;;;;22.00;38.10;;;;;;5055416;28;2006;-73
2024/04/05 11:34:58;;;;;;;;;;;22.00;37.90;;;;;;5055633;28;1069;-73
2024/04/05 11:37:24;;;;;;;;;;;22.00;37.60;;;;;;5055582;28;1096;-73
2024/04/05 11:39:50;;;;;;;;;;;22.00;38.30;;;;;;5055532;28;1202;-74
2024/04/05 11:42:16;;;;;;;;;;;22.00;38.40;;;;;;5055546;28;1476;-73
2024/04/05 11:44:41;;;;;;;;;;;22.00;38.80;;;;;;5055390;28;1984;-76
2024/04/05 11:47:08;;;;;;;;;;;22.00;38.30;;;;;;5055435;28;1061;-73
2024/04/05 11:49:33;;;;;;;;;;;22.10;37.90;;;;;;5055369;28;1017;-75
2024/04/05 11:52:00;;;;;;;;;;;22.10;38.00;;;;;;5055305;28;1041;-74
2024/04/05 11:54:25;;;;;;;;;;;22.10;37.20;;;;;;5054912;28;1123;-74
2024/04/05 11:56:52;;;;;;;;;;;22.10;37.70;;;;;;5055209;28;1121;-74
2024/04/05 11:59:17;;;;;;;;;;;22.10;37.70;;;;;;5055203;28;1064;-74
2024/04/05 12:01:46;;;;;;;;;;;22.00;38.10;;;;;;5054672;28;1479;-74
2024/04/05 12:04:11;;;;;;;;;;;22.00;38.30;;;;;;5055061;28;1910;-74
2024/04/05 12:06:38;;;;;;;;;;;22.00;38.00;;;;;;5054759;28;1187;-74
2024/04/05 12:09:04;;;;;;;;;;;22.10;38.00;;;;;;5054743;28;1147;-74
2024/04/05 12:11:31;;;;;;;;;;;22.00;37.80;;;;;;5055551;28;1061;-74
2024/04/05 12:13:56;;;;;;;;;;;21.90;38.80;;;;;;5055092;28;1087;-74
2024/04/05 12:16:22;;;;;;;;;;;21.80;39.60;;;;;;5054693;28;1116;-74
2024/04/05 12:18:48;;;;;;;;;;;21.80;39.90;;;;;;5054878;28;1021;-74
2024/04/05 12:21:14;;;;;;;;;;;21.80;40.30;;;;;;5054626;28;1124;-74
2024/04/05 12:23:40;;;;;;;;;;;21.80;40.40;;;;;;5054793;28;1991;-73
2024/04/05 12:26:09;;;;;;;;;;;21.80;40.50;;;;;;5054891;28;1082;-73
2024/04/05 12:28:35;;;;;;;;;;;21.80;40.60;;;;;;5055084;28;1048;-73
2024/04/05 12:31:01;;;;;;;;;;;21.80;41.00;;;;;;5054712;28;1100;-73
2024/04/05 12:33:27;;;;;;;;;;;21.80;41.20;;;;;;5054246;28;1072;-73
2024/04/05 12:35:53;;;;;;;;;;;21.70;41.30;;;;;;5054571;28;1375;-74
2024/04/05 12:38:20;;;;;;;;;;;21.80;41.30;;;;;;5054662;28;1067;-74
2024/04/05 12:40:46;;;;;;;;;;;21.70;41.10;;;;;;5054636;28;1065;-73
2024/04/05 12:43:12;;;;;;;;;;;21.70;41.60;;;;;;5054468;28;1905;-73
2024/04/05 12:45:38;;;;;;;;;;;21.70;41.70;;;;;;5054873;28;1016;-73
2024/04/05 12:48:04;;;;;;;;;;;21.70;41.90;;;;;;5054575;28;1094;-73
2024/04/05 12:50:30;;;;;;;;;;;21.70;42.00;;;;;;5054480;28;1017;-74
2024/04/05 12:52:56;;;;;;;;;;;21.70;42.20;;;;;;5054274;28;1052;-73
2024/04/05 12:55:22;;;;;;;;;;;21.70;42.30;;;;;;5054524;28;1073;-73
2024/04/05 12:57:48;;;;;;;;;;;21.70;42.20;;;;;;5054499;28;1103;-73
2024/04/05 13:00:15;;;;;;;;;;;21.70;42.30;;;;;;5054083;28;1383;-73
2024/04/05 13:02:40;;;;;;;;;;;21.70;42.60;;;;;;5054444;28;1167;-73
2024/04/05 13:05:08;;;;;;;;;;;21.70;42.80;;;;;;5054471;28;1989;-73
2024/04/05 13:07:33;;;;;;;;;;;21.70;42.70;;;;;;5054451;28;1077;-73
2024/04/05 13:10:00;;;;;;;;;;;21.70;42.40;;;;;;5054498;28;1024;-73
2024/04/05 13:12:25;;;;;;;;;;;21.70;42.60;;;;;;5054483;28;1021;-73
2024/04/05 13:14:52;;;;;;;;;;;21.70;42.80;;;;;;5054366;28;1065;-73
2024/04/05 13:17:18;;;;;;;;;;;21.60;42.90;;;;;;5054413;28;891;-73
2024/04/05 13:19:45;;;;;;;;;;;21.60;42.90;;;;;;5054098;28;1116;-73
2024/04/05 13:22:10;;;;;;;;;;;21.60;43.00;;;;;;5054278;28;1017;-74
2024/04/05 13:24:36;;;;;;;;;;;21.60;43.00;;;;;;5053929;28;1988;-73
2024/04/05 13:27:02;;;;;;;;;;;21.60;43.20;;;;;;5054217;28;1076;-74
2024/04/05 13:29:29;;;;;;;;;;;21.60;43.20;;;;;;5054206;28;1016;-73
2024/04/05 13:31:54;;;;;;;;;;;21.60;43.20;;;;;;5073072;28;1344;-73
2024/04/05 13:34:21;;;;;;;;;;;21.60;43.30;;;;;;5073074;28;1634;-74
2024/04/05 13:36:47;;;;;;;;;;;21.60;43.30;;;;;;5073232;28;1691;-73
2024/04/05 13:39:13;;;;;;;;;;;21.60;43.40;;;;;;5070180;28;1456;-73
2024/04/05 13:41:38;;;;;;;;;;;21.60;43.40;;;;;;5073447;28;1415;-73
2024/04/05 13:44:05;;;;;;;;;;;21.60;43.40;;;;;;5073556;28;1987;-74
2024/04/05 13:46:30;;;;;;;;;;;21.70;43.50;;;;;;5076096;28;1016;-73
2024/04/05 13:48:57;;;;;;;;;;;21.60;43.50;;;;;;5077646;28;972;-73
2024/04/05 13:51:24;;;;;;;;;;;21.60;43.60;;;;;;5077604;28;1020;-73
2024/04/05 13:53:51;;;;;;;;;;;21.60;43.70;;;;;;5077571;28;1076;-73
2024/04/05 13:56:16;;;;;;;;;;;21.60;43.70;;;;;;5077518;28;1028;-73
2024/04/05 13:58:43;;;;;;;;;;;21.60;43.70;;;;;;5077183;28;1088;-73
2024/04/05 14:01:09;;;;;;;;;;;21.60;43.70;;;;;;5077048;28;1462;-73
2024/04/05 14:03:35;;;;;;;;;;;21.60;43.80;;;;;;5077005;28;1902;-73
2024/04/05 14:06:01;;;;;;;;;;;21.60;43.80;;;;;;5077123;28;1107;-73
2024/04/05 14:08:29;;;;;;;;;;;21.60;43.80;;;;;;5077322;28;1438;-73
2024/04/05 14:10:54;;;;;;;;;;;21.60;43.80;;;;;;5077077;28;1136;-73
2024/04/05 14:13:21;;;;;;;;;;;21.60;43.80;;;;;;5077235;28;1083;-73
2024/04/05 14:15:47;;;;;;;;;;;21.70;43.60;;;;;;5077162;28;1083;-74
2024/04/05 14:18:13;;;;;;;;;;;21.70;43.50;;;;;;5077067;28;997;-73
2024/04/05 14:20:38;;;;;;;;;;;21.70;43.50;;;;;;5076865;28;1247;-73
2024/04/05 14:23:05;;;;;;;;;;;21.70;43.50;;;;;;5077040;28;1278;-74